sensor_id;sensor_type;location;lat;lon;timestamp;pressure;altitude;pressure_sealevel;temperature;humidity
49104;BME280;34915;52.926;11.116;2023-04-26T00:01:52;101393.63;;;4.47;89.21
49104;BME280;34915;52.926;11.116;2023-04-26T00:04:18;101397.56;;;4.34;89.57
49104;BME280;34915;52.926;11.116;2023-04-26T00:06:43;101403.03;;;4.28;89.76
49104;BME280;34915;52.926;11.116;2023-04-26T00:09:12;101399.63;;;4.26;90.59
49104;BME280;34915;52.926;11.116;2023-04-26T00:11:37;101405.88;;;4.22;91.28
49104;BME280;34915;52.926;11.116;2023-04-26T00:14:03;101408.50;;;4.22;91.21
49104;BME280;34915;52.926;11.116;2023-04-26T00:16:28;101401.56;;;4.21;90.99
49104;BME280;34915;52.926;11.116;2023-04-26T00:18:54;101401.34;;;4.27;90.93
49104;BME280;34915;52.926;11.116;2023-04-26T00:21:20;101407.75;;;4.19;91.43
49104;BME280;34915;52.926;11.116;2023-04-26T00:23:46;101402.63;;;4.16;91.83
49104;BME280;34915;52.926;11.116;2023-04-26T00:26:11;101405.28;;;4.14;91.66
49104;BME280;34915;52.926;11.116;2023-04-26T00:28:37;101410.84;;;4.05;92.09
49104;BME280;34915;52.926;11.116;2023-04-26T00:31:02;101419.81;;;3.98;92.64
49104;BME280;34915;52.926;11.116;2023-04-26T00:33:30;101412.75;;;4.00;93.21
49104;BME280;34915;52.926;11.116;2023-04-26T00:35:56;101420.66;;;3.99;93.04
49104;BME280;34915;52.926;11.116;2023-04-26T00:38:21;101425.06;;;3.98;92.96
49104;BME280;34915;52.926;11.116;2023-04-26T00:40:47;101409.25;;;4.01;92.98
49104;BME280;34915;52.926;11.116;2023-04-26T00:43:12;101412.66;;;4.03;93.31
49104;BME280;34915;52.926;11.116;2023-04-26T00:45:38;101416.47;;;3.93;92.80
49104;BME280;34915;52.926;11.116;2023-04-26T00:48:04;101401.84;;;3.88;93.37
49104;BME280;34915;52.926;11.116;2023-04-26T00:50:30;101407.03;;;3.90;93.43
49104;BME280;34915;52.926;11.116;2023-04-26T00:52:57;101408.03;;;3.86;94.21
49104;BME280;34915;52.926;11.116;2023-04-26T00:55:23;101414.13;;;3.86;94.07
49104;BME280;34915;52.926;11.116;2023-04-26T00:57:51;101411.44;;;3.88;93.97
49104;BME280;34915;52.926;11.116;2023-04-26T01:00:19;101413.47;;;3.80;93.84
49104;BME280;34915;52.926;11.116;2023-04-26T01:02:45;101417.00;;;3.79;94.30
49104;BME280;34915;52.926;11.116;2023-04-26T01:05:14;101415.22;;;3.81;94.17
49104;BME280;34915;52.926;11.116;2023-04-26T01:07:39;101420.53;;;3.78;94.46
49104;BME280;34915;52.926;11.116;2023-04-26T01:10:05;101416.91;;;3.82;94.66
49104;BME280;34915;52.926;11.116;2023-04-26T01:12:33;101418.72;;;3.80;94.45
49104;BME280;34915;52.926;11.116;2023-04-26T01:14:59;101422.03;;;3.85;94.27
49104;BME280;34915;52.926;11.116;2023-04-26T01:17:25;101423.81;;;3.84;94.48
49104;BME280;34915;52.926;11.116;2023-04-26T01:19:51;101425.69;;;3.81;94.87
49104;BME280;34915;52.926;11.116;2023-04-26T01:22:17;101421.19;;;3.84;94.70
49104;BME280;34915;52.926;11.116;2023-04-26T01:24:44;101424.00;;;3.78;95.12
49104;BME280;34915;52.926;11.116;2023-04-26T01:27:13;101425.69;;;3.81;95.13
49104;BME280;34915;52.926;11.116;2023-04-26T01:29:39;101429.19;;;3.80;95.02
49104;BME280;34915;52.926;11.116;2023-04-26T01:32:05;101433.44;;;3.84;94.89
49104;BME280;34915;52.926;11.116;2023-04-26T01:34:30;101437.94;;;3.79;94.64
49104;BME280;34915;52.926;11.116;2023-04-26T01:36:57;101443.19;;;3.79;95.42
49104;BME280;34915;52.926;11.116;2023-04-26T01:39:23;101435.28;;;3.80;94.71
49104;BME280;34915;52.926;11.116;2023-04-26T01:41:48;101430.94;;;3.81;94.93
49104;BME280;34915;52.926;11.116;2023-04-26T01:44:14;101437.94;;;3.79;94.88
49104;BME280;34915;52.926;11.116;2023-04-26T01:46:39;101439.78;;;3.77;94.89
49104;BME280;34915;52.926;11.116;2023-04-26T01:49:05;101440.69;;;3.76;94.81
49104;BME280;34915;52.926;11.116;2023-04-26T01:51:31;101438.06;;;3.76;95.04
49104;BME280;34915;52.926;11.116;2023-04-26T01:53:57;101445.22;;;3.71;95.70
49104;BME280;34915;52.926;11.116;2023-04-26T01:56:23;101436.53;;;3.69;95.73
49104;BME280;34915;52.926;11.116;2023-04-26T01:58:49;101441.97;;;3.63;95.67
49104;BME280;34915;52.926;11.116;2023-04-26T02:01:14;101445.63;;;3.59;96.50
49104;BME280;34915;52.926;11.116;2023-04-26T02:03:40;101448.28;;;3.57;96.85
49104;BME280;34915;52.926;11.116;2023-04-26T02:06:05;101447.41;;;3.57;97.51
49104;BME280;34915;52.926;11.116;2023-04-26T02:08:36;101438.75;;;3.55;96.95
49104;BME280;34915;52.926;11.116;2023-04-26T02:11:02;101440.47;;;3.56;97.91
49104;BME280;34915;52.926;11.116;2023-04-26T02:13:27;101439.78;;;3.49;98.04
49104;BME280;34915;52.926;11.116;2023-04-26T02:15:53;101439.66;;;3.54;98.24
49104;BME280;34915;52.926;11.116;2023-04-26T02:18:19;101444.09;;;3.52;97.93
49104;BME280;34915;52.926;11.116;2023-04-26T02:20:46;101450.16;;;3.52;97.52
49104;BME280;34915;52.926;11.116;2023-04-26T02:23:12;101444.28;;;3.46;97.93
49104;BME280;34915;52.926;11.116;2023-04-26T02:25:37;101447.09;;;3.40;98.28
49104;BME280;34915;52.926;11.116;2023-04-26T02:28:04;101448.25;;;3.30;98.69
49104;BME280;34915;52.926;11.116;2023-04-26T02:30:30;101451.69;;;3.32;99.30
49104;BME280;34915;52.926;11.116;2023-04-26T02:32:56;101453.59;;;3.27;99.03
49104;BME280;34915;52.926;11.116;2023-04-26T02:35:22;101457.09;;;3.26;99.60
49104;BME280;34915;52.926;11.116;2023-04-26T02:37:48;101451.97;;;3.23;99.62
49104;BME280;34915;52.926;11.116;2023-04-26T02:40:14;101444.75;;;3.31;100.00
49104;BME280;34915;52.926;11.116;2023-04-26T02:42:40;101453.50;;;3.30;99.84
49104;BME280;34915;52.926;11.116;2023-04-26T02:45:06;101453.59;;;3.27;100.00
49104;BME280;34915;52.926;11.116;2023-04-26T02:47:32;101450.13;;;3.25;100.00
49104;BME280;34915;52.926;11.116;2023-04-26T02:50:04;101457.09;;;3.26;100.00
49104;BME280;34915;52.926;11.116;2023-04-26T02:52:32;101445.69;;;3.29;100.00
49104;BME280;34915;52.926;11.116;2023-04-26T02:54:57;101448.53;;;3.21;100.00
49104;BME280;34915;52.926;11.116;2023-04-26T02:57:23;101452.16;;;3.17;100.00
49104;BME280;34915;52.926;11.116;2023-04-26T02:59:51;101446.16;;;3.14;100.00
49104;BME280;34915;52.926;11.116;2023-04-26T03:02:16;101445.28;;;3.13;100.00
49104;BME280;34915;52.926;11.116;2023-04-26T03:04:42;101443.59;;;3.12;100.00
49104;BME280;34915;52.926;11.116;2023-04-26T03:07:08;101447.94;;;3.12;100.00
49104;BME280;34915;52.926;11.116;2023-04-26T03:09:33;101447.09;;;3.11;100.00
49104;BME280;34915;52.926;11.116;2023-04-26T03:12:02;101444.72;;;3.04;100.00
49104;BME280;34915;52.926;11.116;2023-04-26T03:14:28;101442.13;;;3.02;100.00
49104;BME280;34915;52.926;11.116;2023-04-26T03:16:53;101454.38;;;3.00;100.00
49104;BME280;34915;52.926;11.116;2023-04-26T03:19:19;101442.31;;;2.96;100.00
49104;BME280;34915;52.926;11.116;2023-04-26T03:21:45;101441.31;;;3.00;100.00
49104;BME280;34915;52.926;11.116;2023-04-26T03:24:11;101446.72;;;2.94;100.00
49104;BME280;34915;52.926;11.116;2023-04-26T03:26:36;101454.56;;;2.94;100.00
49104;BME280;34915;52.926;11.116;2023-04-26T03:29:02;101444.28;;;2.89;100.00
49104;BME280;34915;52.926;11.116;2023-04-26T03:31:28;101454.75;;;2.89;100.00
49104;BME280;34915;52.926;11.116;2023-04-26T03:33:53;101449.50;;;2.89;100.00
49104;BME280;34915;52.926;11.116;2023-04-26T03:36:19;101446.91;;;2.89;100.00
49104;BME280;34915;52.926;11.116;2023-04-26T03:38:45;101452.97;;;2.91;100.00
49104;BME280;34915;52.926;11.116;2023-04-26T03:41:11;101460.91;;;2.86;100.00
49104;BME280;34915;52.926;11.116;2023-04-26T03:43:36;101460.16;;;2.83;100.00
49104;BME280;34915;52.926;11.116;2023-04-26T03:46:03;101460.06;;;2.86;100.00
49104;BME280;34915;52.926;11.116;2023-04-26T03:48:29;101461.78;;;2.87;100.00
49104;BME280;34915;52.926;11.116;2023-04-26T03:50:54;101455.44;;;2.95;100.00
49104;BME280;34915;52.926;11.116;2023-04-26T03:53:20;101449.44;;;2.92;100.00
49104;BME280;34915;52.926;11.116;2023-04-26T03:55:46;101466.75;;;2.95;100.00
49104;BME280;34915;52.926;11.116;2023-04-26T03:58:11;101462.31;;;2.97;100.00
49104;BME280;34915;52.926;11.116;2023-04-26T04:00:38;101464.94;;;2.97;100.00
49104;BME280;34915;52.926;11.116;2023-04-26T04:03:05;101468.31;;;3.02;100.00
49104;BME280;34915;52.926;11.116;2023-04-26T04:05:30;101456.19;;;2.98;100.00
49104;BME280;34915;52.926;11.116;2023-04-26T04:07:56;101459.63;;;3.00;100.00
49104;BME280;34915;52.926;11.116;2023-04-26T04:10:22;101460.41;;;3.04;100.00
49104;BME280;34915;52.926;11.116;2023-04-26T04:12:51;101470.97;;;3.01;100.00
49104;BME280;34915;52.926;11.116;2023-04-26T04:15:18;101463.06;;;3.02;100.00
49104;BME280;34915;52.926;11.116;2023-04-26T04:17:43;101459.63;;;3.00;100.00
49104;BME280;34915;52.926;11.116;2023-04-26T04:20:10;101458.81;;;2.98;100.00
49104;BME280;34915;52.926;11.116;2023-04-26T04:22:35;101459.53;;;3.03;100.00
49104;BME280;34915;52.926;11.116;2023-04-26T04:25:07;101463.06;;;3.02;100.00
49104;BME280;34915;52.926;11.116;2023-04-26T04:27:35;101468.22;;;3.05;100.00
49104;BME280;34915;52.926;11.116;2023-04-26T04:30:02;101466.44;;;3.06;100.00
49104;BME280;34915;52.926;11.116;2023-04-26T04:32:29;101472.56;;;3.05;100.00
49104;BME280;34915;52.926;11.116;2023-04-26T04:34:57;101475.13;;;3.06;100.00
49104;BME280;34915;52.926;11.116;2023-04-26T04:37:23;101472.66;;;3.02;100.00
49104;BME280;34915;52.926;11.116;2023-04-26T04:39:54;101480.31;;;3.09;100.00
49104;BME280;34915;52.926;11.116;2023-04-26T04:42:20;101473.09;;;3.17;100.00
49104;BME280;34915;52.926;11.116;2023-04-26T04:44:48;101477.19;;;3.26;100.00
49104;BME280;34915;52.926;11.116;2023-04-26T04:47:14;101480.56;;;3.29;100.00
49104;BME280;34915;52.926;11.116;2023-04-26T04:49:40;101483.00;;;3.35;100.00
49104;BME280;34915;52.926;11.116;2023-04-26T04:52:06;101484.63;;;3.39;100.00
49104;BME280;34915;52.926;11.116;2023-04-26T04:54:31;101489.69;;;3.45;100.00
49104;BME280;34915;52.926;11.116;2023-04-26T04:56:57;101484.44;;;3.45;100.00
49104;BME280;34915;52.926;11.116;2023-04-26T04:59:23;101478.03;;;3.55;100.00
49104;BME280;34915;52.926;11.116;2023-04-26T05:01:49;101478.69;;;3.61;100.00
49104;BME280;34915;52.926;11.116;2023-04-26T05:04:15;101489.94;;;3.65;100.00
49104;BME280;34915;52.926;11.116;2023-04-26T05:06:41;101487.31;;;3.65;100.00
49104;BME280;34915;52.926;11.116;2023-04-26T05:09:07;101492.38;;;3.71;100.00
49104;BME280;34915;52.926;11.116;2023-04-26T05:11:34;101490.66;;;3.70;100.00
49104;BME280;34915;52.926;11.116;2023-04-26T05:13:59;101499.22;;;3.75;100.00
49104;BME280;34915;52.926;11.116;2023-04-26T05:16:25;101500.84;;;3.79;100.00
49104;BME280;34915;52.926;11.116;2023-04-26T05:18:51;101493.81;;;3.81;100.00
49104;BME280;34915;52.926;11.116;2023-04-26T05:21:16;101497.97;;;3.86;100.00
49104;BME280;34915;52.926;11.116;2023-04-26T05:23:42;101491.69;;;3.91;100.00
49104;BME280;34915;52.926;11.116;2023-04-26T05:26:12;101495.19;;;3.90;100.00
49104;BME280;34915;52.926;11.116;2023-04-26T05:28:38;101494.94;;;3.99;100.00
49104;BME280;34915;52.926;11.116;2023-04-26T05:31:04;101496.63;;;4.00;100.00
49104;BME280;34915;52.926;11.116;2023-04-26T05:33:29;101493.69;;;4.09;100.00
49104;BME280;34915;52.926;11.116;2023-04-26T05:35:55;101499.66;;;4.14;100.00
49104;BME280;34915;52.926;11.116;2023-04-26T05:38:24;101502.41;;;4.11;100.00
49104;BME280;34915;52.926;11.116;2023-04-26T05:40:50;101505.72;;;4.16;99.96
49104;BME280;34915;52.926;11.116;2023-04-26T05:43:15;101507.31;;;4.20;99.74
49104;BME280;34915;52.926;11.116;2023-04-26T05:45:55;101513.16;;;4.28;99.23
49104;BME280;34915;52.926;11.116;2023-04-26T05:48:23;101517.34;;;4.34;98.85
49104;BME280;34915;52.926;11.116;2023-04-26T05:50:49;101519.72;;;4.41;98.25
49104;BME280;34915;52.926;11.116;2023-04-26T05:53:16;101509.78;;;4.50;97.96
49104;BME280;34915;52.926;11.116;2023-04-26T05:55:44;101515.66;;;4.57;96.92
49104;BME280;34915;52.926;11.116;2023-04-26T05:58:10;101527.88;;;4.58;96.54
49104;BME280;34915;52.926;11.116;2023-04-26T06:00:36;101519.59;;;4.70;97.25
49104;BME280;34915;52.926;11.116;2023-04-26T06:03:03;101514.81;;;4.81;96.46
49104;BME280;34915;52.926;11.116;2023-04-26T06:05:30;101513.13;;;4.80;95.63
49104;BME280;34915;52.926;11.116;2023-04-26T06:07:55;101513.22;;;4.77;95.55
49104;BME280;34915;52.926;11.116;2023-04-26T06:10:21;101512.91;;;4.86;94.80
49104;BME280;34915;52.926;11.116;2023-04-26T06:12:47;101516.19;;;4.90;93.96
49104;BME280;34915;52.926;11.116;2023-04-26T06:15:12;101519.00;;;4.86;94.80
49104;BME280;34915;52.926;11.116;2023-04-26T06:17:39;101519.75;;;4.89;95.02
49104;BME280;34915;52.926;11.116;2023-04-26T06:20:05;101521.00;;;5.02;94.61
49104;BME280;34915;52.926;11.116;2023-04-26T06:22:31;101523.88;;;5.19;93.74
49104;BME280;34915;52.926;11.116;2023-04-26T06:24:57;101514.66;;;5.32;92.94
49104;BME280;34915;52.926;11.116;2023-04-26T06:27:23;101519.44;;;5.44;91.89
49104;BME280;34915;52.926;11.116;2023-04-26T06:29:48;101512.03;;;5.55;91.85
49104;BME280;34915;52.926;11.116;2023-04-26T06:32:14;101523.88;;;5.65;90.92
49104;BME280;34915;52.926;11.116;2023-04-26T06:34:40;101519.88;;;5.78;90.68
49104;BME280;34915;52.926;11.116;2023-04-26T06:37:08;101517.72;;;5.88;89.96
49104;BME280;34915;52.926;11.116;2023-04-26T06:39:33;101519.28;;;5.92;87.66
49104;BME280;34915;52.926;11.116;2023-04-26T06:41:59;101516.38;;;6.00;87.98
49104;BME280;34915;52.926;11.116;2023-04-26T06:44:25;101513.31;;;6.10;87.64
49104;BME280;34915;52.926;11.116;2023-04-26T06:46:53;101508.44;;;6.21;85.64
49104;BME280;34915;52.926;11.116;2023-04-26T06:49:19;101508.50;;;6.41;85.92
49104;BME280;34915;52.926;11.116;2023-04-26T06:51:45;101517.72;;;6.71;84.83
49104;BME280;34915;52.926;11.116;2023-04-26T06:54:11;101517.19;;;6.83;83.68
49104;BME280;34915;52.926;11.116;2023-04-26T06:56:37;101519.31;;;6.75;83.55
49104;BME280;34915;52.926;11.116;2023-04-26T06:59:04;101523.25;;;6.65;83.05
49104;BME280;34915;52.926;11.116;2023-04-26T07:01:31;101526.13;;;6.59;83.19
49104;BME280;34915;52.926;11.116;2023-04-26T07:04:00;101525.34;;;6.57;81.21
49104;BME280;34915;52.926;11.116;2023-04-26T07:06:28;101516.91;;;6.49;81.29
49104;BME280;34915;52.926;11.116;2023-04-26T07:08:54;101517.31;;;6.60;83.20
49104;BME280;34915;52.926;11.116;2023-04-26T07:11:19;101521.41;;;6.86;82.52
49104;BME280;34915;52.926;11.116;2023-04-26T07:13:45;101511.13;;;7.00;80.87
49104;BME280;34915;52.926;11.116;2023-04-26T07:16:11;101513.06;;;7.15;80.19
49104;BME280;34915;52.926;11.116;2023-04-26T07:18:38;101521.56;;;7.22;79.01
49104;BME280;34915;52.926;11.116;2023-04-26T07:21:04;101516.19;;;7.43;78.79
49104;BME280;34915;52.926;11.116;2023-04-26T07:23:31;101526.00;;;7.58;78.32
49104;BME280;34915;52.926;11.116;2023-04-26T07:25:56;101521.41;;;7.63;77.37
49104;BME280;34915;52.926;11.116;2023-04-26T07:28:22;101519.03;;;7.57;75.91
49104;BME280;34915;52.926;11.116;2023-04-26T07:30:48;101530.22;;;7.62;75.04
49104;BME280;34915;52.926;11.116;2023-04-26T07:33:15;101523.16;;;7.62;74.48
49104;BME280;34915;52.926;11.116;2023-04-26T07:35:42;101522.47;;;7.59;73.81
49104;BME280;34915;52.926;11.116;2023-04-26T07:38:10;101529.88;;;7.87;74.36
49104;BME280;34915;52.926;11.116;2023-04-26T07:40:38;101520.00;;;8.09;72.94
49104;BME280;34915;52.926;11.116;2023-04-26T07:43:04;101518.66;;;8.19;72.50
49104;BME280;34915;52.926;11.116;2023-04-26T07:45:31;101528.47;;;8.34;72.96
49104;BME280;34915;52.926;11.116;2023-04-26T07:47:56;101526.28;;;8.42;73.13
49104;BME280;34915;52.926;11.116;2023-04-26T07:50:23;101527.09;;;8.44;71.16
49104;BME280;34915;52.926;11.116;2023-04-26T07:52:50;101529.56;;;8.47;71.72
49104;BME280;34915;52.926;11.116;2023-04-26T07:55:16;101515.59;;;8.62;70.44
49104;BME280;34915;52.926;11.116;2023-04-26T07:57:41;101527.94;;;8.78;69.74
49104;BME280;34915;52.926;11.116;2023-04-26T08:00:13;101522.72;;;8.93;68.37
49104;BME280;34915;52.926;11.116;2023-04-26T08:02:40;101526.72;;;9.17;69.73
49104;BME280;34915;52.926;11.116;2023-04-26T08:05:06;101529.53;;;8.97;68.75
49104;BME280;34915;52.926;11.116;2023-04-26T08:07:31;101527.53;;;9.02;68.55
49104;BME280;34915;52.926;11.116;2023-04-26T08:10:00;101532.19;;;9.14;68.00
49104;BME280;34915;52.926;11.116;2023-04-26T08:12:25;101529.50;;;9.31;68.24
49104;BME280;34915;52.926;11.116;2023-04-26T08:14:51;101530.94;;;9.21;66.37
49104;BME280;34915;52.926;11.116;2023-04-26T08:17:16;101531.66;;;8.74;65.25
49104;BME280;34915;52.926;11.116;2023-04-26T08:19:42;101526.28;;;8.92;66.32
49104;BME280;34915;52.926;11.116;2023-04-26T08:22:07;101525.34;;;9.10;64.86
49104;BME280;34915;52.926;11.116;2023-04-26T08:24:33;101529.19;;;9.37;64.66
49104;BME280;34915;52.926;11.116;2023-04-26T08:26:59;101528.34;;;9.52;64.15
49104;BME280;34915;52.926;11.116;2023-04-26T08:29:25;101536.81;;;9.26;64.94
49104;BME280;34915;52.926;11.116;2023-04-26T08:31:51;101543.91;;;9.26;63.69
49104;BME280;34915;52.926;11.116;2023-04-26T08:34:17;101535.56;;;9.33;63.59
49104;BME280;34915;52.926;11.116;2023-04-26T08:36:42;101523.47;;;9.60;63.69
49104;BME280;34915;52.926;11.116;2023-04-26T08:39:09;101531.75;;;9.54;60.43
49104;BME280;34915;52.926;11.116;2023-04-26T08:41:44;101528.19;;;9.55;61.93
49104;BME280;34915;52.926;11.116;2023-04-26T08:44:13;101532.50;;;10.03;59.49
49104;BME280;34915;52.926;11.116;2023-04-26T08:46:57;101528.41;;;10.13;59.92
49104;BME280;34915;52.926;11.116;2023-04-26T08:49:41;101532.41;;;10.20;60.06
49104;BME280;34915;52.926;11.116;2023-04-26T08:52:12;101517.22;;;10.53;57.08
49104;BME280;34915;52.926;11.116;2023-04-26T08:54:39;101530.03;;;10.00;57.15
49104;BME280;34915;52.926;11.116;2023-04-26T08:57:06;101521.38;;;9.66;58.78
49104;BME280;34915;52.926;11.116;2023-04-26T08:59:33;101530.38;;;9.47;59.89
49104;BME280;34915;52.926;11.116;2023-04-26T09:02:00;101533.97;;;9.46;59.79
49104;BME280;34915;52.926;11.116;2023-04-26T09:04:29;101527.34;;;9.54;59.53
49104;BME280;34915;52.926;11.116;2023-04-26T09:06:59;101533.59;;;9.36;58.47
49104;BME280;34915;52.926;11.116;2023-04-26T09:09:26;101529.19;;;9.37;59.62
49104;BME280;34915;52.926;11.116;2023-04-26T09:11:54;101531.19;;;9.32;59.81
49104;BME280;34915;52.926;11.116;2023-04-26T09:14:20;101535.72;;;9.30;59.92
49104;BME280;34915;52.926;11.116;2023-04-26T09:16:46;101541.59;;;9.35;59.74
49104;BME280;34915;52.926;11.116;2023-04-26T09:19:14;101538.84;;;9.21;59.76
49104;BME280;34915;52.926;11.116;2023-04-26T09:21:44;101538.84;;;9.21;60.43
49104;BME280;34915;52.926;11.116;2023-04-26T09:24:11;101537.63;;;9.11;60.90
49104;BME280;34915;52.926;11.116;2023-04-26T09:26:37;101538.44;;;8.96;60.47
49104;BME280;34915;52.926;11.116;2023-04-26T09:29:14;101541.84;;;8.82;61.16
49104;BME280;34915;52.926;11.116;2023-04-26T09:31:45;101545.09;;;8.70;61.32
49104;BME280;34915;52.926;11.116;2023-04-26T09:34:12;101546.66;;;8.74;60.84
49104;BME280;34915;52.926;11.116;2023-04-26T09:36:54;101536.16;;;9.38;59.36
49104;BME280;34915;52.926;11.116;2023-04-26T09:39:37;101521.75;;;10.06;57.05
49104;BME280;34915;52.926;11.116;2023-04-26T09:42:05;101518.81;;;10.26;56.72
49104;BME280;34915;52.926;11.116;2023-04-26T09:44:31;101531.50;;;10.21;56.24
49104;BME280;34915;52.926;11.116;2023-04-26T09:49:32;101523.94;;;10.44;55.30
49104;BME280;34915;52.926;11.116;2023-04-26T09:52:02;101522.88;;;10.47;55.44
49104;BME280;34915;52.926;11.116;2023-04-26T09:54:49;101520.56;;;10.27;55.96
49104;BME280;34915;52.926;11.116;2023-04-26T09:57:19;101523.94;;;10.44;54.86
49104;BME280;34915;52.926;11.116;2023-04-26T09:59:53;101515.03;;;10.45;54.84
49104;BME280;34915;52.926;11.116;2023-04-26T10:02:21;101523.41;;;10.38;55.07
49104;BME280;34915;52.926;11.116;2023-04-26T10:04:50;101534.03;;;10.07;54.86
49104;BME280;34915;52.926;11.116;2023-04-26T10:07:17;101536.22;;;9.69;57.62
49104;BME280;34915;52.926;11.116;2023-04-26T10:09:43;101541.44;;;9.38;58.65
49104;BME280;34915;52.926;11.116;2023-04-26T10:12:13;101545.53;;;9.28;59.59
49104;BME280;34915;52.926;11.116;2023-04-26T10:14:40;101547.88;;;9.17;58.44
49104;BME280;34915;52.926;11.116;2023-04-26T10:17:06;101546.94;;;9.18;58.92
49104;BME280;34915;52.926;11.116;2023-04-26T10:19:36;101552.41;;;9.15;59.64
49104;BME280;34915;52.926;11.116;2023-04-26T10:22:08;101550.81;;;9.28;58.96
49104;BME280;34915;52.926;11.116;2023-04-26T10:24:35;101526.00;;;9.93;59.12
49104;BME280;34915;52.926;11.116;2023-04-26T10:27:01;101526.34;;;10.33;57.37
49104;BME280;34915;52.926;11.116;2023-04-26T10:32:18;101518.75;;;10.57;54.20
49104;BME280;34915;52.926;11.116;2023-04-26T10:34:46;101524.50;;;10.79;54.56
49104;BME280;34915;52.926;11.116;2023-04-26T10:37:29;101530.44;;;10.24;55.00
49104;BME280;34915;52.926;11.116;2023-04-26T10:40:36;101545.59;;;9.59;57.23
49104;BME280;34915;52.926;11.116;2023-04-26T10:45:33;101541.75;;;9.17;57.31
49104;BME280;34915;52.926;11.116;2023-04-26T10:48:22;101542.91;;;9.11;57.15
49104;BME280;34915;52.926;11.116;2023-04-26T10:55:54;101534.66;;;9.49;56.47
49104;BME280;34915;52.926;11.116;2023-04-26T11:01:07;101521.09;;;10.77;54.01
49104;BME280;34915;52.926;11.116;2023-04-26T11:03:34;101522.88;;;11.05;54.73
49104;BME280;34915;52.926;11.116;2023-04-26T11:05:59;101523.44;;;10.67;51.93
49104;BME280;34915;52.926;11.116;2023-04-26T11:08:30;101537.44;;;10.40;53.93
49104;BME280;34915;52.926;11.116;2023-04-26T11:13:41;101530.28;;;9.81;54.94
49104;BME280;34915;52.926;11.116;2023-04-26T11:16:14;101528.59;;;9.63;55.00
49104;BME280;34915;52.926;11.116;2023-04-26T11:18:45;101526.53;;;9.52;54.95
49104;BME280;34915;52.926;11.116;2023-04-26T11:21:11;101530.06;;;9.53;54.74
49104;BME280;34915;52.926;11.116;2023-04-26T11:23:39;101524.63;;;9.56;55.21
49104;BME280;34915;52.926;11.116;2023-04-26T11:26:06;101534.13;;;9.43;54.63
49104;BME280;34915;52.926;11.116;2023-04-26T11:28:36;101539.19;;;9.47;55.77
49104;BME280;34915;52.926;11.116;2023-04-26T11:31:03;101545.28;;;9.65;56.88
49104;BME280;34915;52.926;11.116;2023-04-26T11:33:29;101537.59;;;9.76;56.13
49104;BME280;34915;52.926;11.116;2023-04-26T11:35:56;101534.09;;;9.75;55.55
49104;BME280;34915;52.926;11.116;2023-04-26T11:38:23;101543.00;;;9.89;56.44
49104;BME280;34915;52.926;11.116;2023-04-26T11:41:00;101541.91;;;10.24;57.46
49104;BME280;34915;52.926;11.116;2023-04-26T11:46:03;101532.81;;;10.43;58.17
49104;BME280;34915;52.926;11.116;2023-04-26T11:48:29;101540.09;;;10.69;58.09
49104;BME280;34915;52.926;11.116;2023-04-26T11:50:59;101534.13;;;10.66;55.67
49104;BME280;34915;52.926;11.116;2023-04-26T11:53:34;101526.25;;;10.64;56.02
49104;BME280;34915;52.926;11.116;2023-04-26T11:56:00;101538.13;;;10.73;55.31
49104;BME280;34915;52.926;11.116;2023-04-26T11:58:25;101529.97;;;11.05;54.63
49104;BME280;34915;52.926;11.116;2023-04-26T12:00:58;101534.97;;;11.09;53.08
49104;BME280;34915;52.926;11.116;2023-04-26T12:03:34;101515.88;;;11.32;53.18
49104;BME280;34915;52.926;11.116;2023-04-26T12:06:02;101516.25;;;11.26;52.29
49104;BME280;34915;52.926;11.116;2023-04-26T12:08:29;101538.34;;;10.83;53.17
49104;BME280;34915;52.926;11.116;2023-04-26T12:11:00;101539.19;;;10.55;54.01
49104;BME280;34915;52.926;11.116;2023-04-26T12:13:27;101542.91;;;10.37;53.49
49104;BME280;34915;52.926;11.116;2023-04-26T12:15:53;101553.03;;;10.15;55.60
49104;BME280;34915;52.926;11.116;2023-04-26T12:18:18;101555.22;;;10.07;55.88
49104;BME280;34915;52.926;11.116;2023-04-26T12:20:44;101560.69;;;10.04;55.56
49104;BME280;34915;52.926;11.116;2023-04-26T12:23:14;101557.28;;;10.02;55.02
49104;BME280;34915;52.926;11.116;2023-04-26T12:25:51;101557.13;;;10.05;53.10
49104;BME280;34915;52.926;11.116;2023-04-26T12:28:17;101566.00;;;10.04;53.24
49104;BME280;34915;52.926;11.116;2023-04-26T12:30:42;101566.25;;;10.15;55.29
49104;BME280;34915;52.926;11.116;2023-04-26T12:33:08;101567.25;;;9.97;54.77
49104;BME280;34915;52.926;11.116;2023-04-26T12:35:33;101568.22;;;9.96;56.25
49104;BME280;34915;52.926;11.116;2023-04-26T12:37:59;101558.63;;;10.09;58.10
49104;BME280;34915;52.926;11.116;2023-04-26T12:40:26;101569.22;;;10.09;57.16
49104;BME280;34915;52.926;11.116;2023-04-26T12:42:53;101565.28;;;10.16;57.72
49104;BME280;34915;52.926;11.116;2023-04-26T12:45:24;101561.03;;;10.29;56.95
49104;BME280;34915;52.926;11.116;2023-04-26T12:47:53;101563.09;;;10.09;56.36
49104;BME280;34915;52.926;11.116;2023-04-26T12:50:21;101560.84;;;10.32;57.13
49104;BME280;34915;52.926;11.116;2023-04-26T12:52:47;101562.53;;;10.78;54.08
49104;BME280;34915;52.926;11.116;2023-04-26T12:55:14;101556.75;;;11.00;53.49
49104;BME280;34915;52.926;11.116;2023-04-26T12:57:42;101560.94;;;11.18;52.08
49104;BME280;34915;52.926;11.116;2023-04-26T13:00:13;101550.91;;;11.37;53.31
49104;BME280;34915;52.926;11.116;2023-04-26T13:02:40;101556.00;;;11.55;54.07
49104;BME280;34915;52.926;11.116;2023-04-26T13:05:06;101557.94;;;11.38;53.07
49104;BME280;34915;52.926;11.116;2023-04-26T13:07:33;101559.50;;;10.99;53.42